<?xml version="1.0" encoding="UTF-8"?><gpx xmlns="http://www.topografix.com/GPX/1/1" version="1.1" creator="iOrient"><trk><name>Квест "Код города"</name><trkseg><trkpt lat="56.8354860" lon="53.1272726"><time>2024-11-03T08:36:57.590</time></trkpt><trkpt lat="56.8354782" lon="53.1272519"><time>2024-11-03T08:36:58.687</time></trkpt><trkpt lat="56.8355234" lon="53.1272633"><time>2024-11-03T08:37:08.557</time></trkpt><trkpt lat="56.8355711" lon="53.1272851"><time>2024-11-03T08:37:21.550</time></trkpt><trkpt lat="56.8355994" lon="53.1272034"><time>2024-11-03T08:37:36.553</time></trkpt><trkpt lat="56.8355860" lon="53.1272843"><time>2024-11-03T08:37:58.540</time></trkpt><trkpt lat="56.8355447" lon="53.1273368"><time>2024-11-03T08:38:12.557</time></trkpt><trkpt lat="56.8355109" lon="53.1273926"><time>2024-11-03T08:38:16.560</time></trkpt><trkpt lat="56.8354984" lon="53.1274863"><time>2024-11-03T08:38:20.540</time></trkpt><trkpt lat="56.8354891" lon="53.1275760"><time>2024-11-03T08:38:22.553</time></trkpt><trkpt lat="56.8354866" lon="53.1276687"><time>2024-11-03T08:38:25.540</time></trkpt><trkpt lat="56.8354944" lon="53.1277942"><time>2024-11-03T08:38:28.547</time></trkpt><trkpt lat="56.8355016" lon="53.1282913"><time>2024-11-03T08:38:30.537</time></trkpt><trkpt lat="56.8354626" lon="53.1283929"><time>2024-11-03T08:38:32.577</time></trkpt><trkpt lat="56.8354505" lon="53.1284084"><time>2024-11-03T08:38:33.777</time></trkpt><trkpt lat="56.8353791" lon="53.1284557"><time>2024-11-03T08:38:35.553</time></trkpt><trkpt lat="56.8352934" lon="53.1284423"><time>2024-11-03T08:38:37.563</time></trkpt><trkpt lat="56.8352430" lon="53.1284400"><time>2024-11-03T08:38:39.547</time></trkpt><trkpt lat="56.8351828" lon="53.1284237"><time>2024-11-03T08:38:42.547</time></trkpt><trkpt lat="56.8351364" lon="53.1284228"><time>2024-11-03T08:38:45.547</time></trkpt><trkpt lat="56.8350985" lon="53.1285073"><time>2024-11-03T08:38:50.543</time></trkpt><trkpt lat="56.8351077" lon="53.1285986"><time>2024-11-03T08:38:52.543</time></trkpt><trkpt lat="56.8351483" lon="53.1286654"><time>2024-11-03T08:38:54.547</time></trkpt><trkpt lat="56.8351739" lon="53.1285946"><time>2024-11-03T08:39:00.560</time></trkpt><trkpt lat="56.8351814" lon="53.1285265"><time>2024-11-03T08:39:01.663</time></trkpt><trkpt lat="56.8351849" lon="53.1285434"><time>2024-11-03T08:39:02.807</time></trkpt><trkpt lat="56.8351826" lon="53.1285371"><time>2024-11-03T08:39:03.923</time></trkpt><trkpt lat="56.8351698" lon="53.1285428"><time>2024-11-03T08:39:05.027</time></trkpt><trkpt lat="56.8351779" lon="53.1284487"><time>2024-11-03T08:39:12.547</time></trkpt><trkpt lat="56.8352150" lon="53.1283997"><time>2024-11-03T08:39:16.547</time></trkpt><trkpt lat="56.8351636" lon="53.1284221"><time>2024-11-03T08:39:25.547</time></trkpt><trkpt lat="56.8351253" lon="53.1284772"><time>2024-11-03T08:39:28.557</time></trkpt><trkpt lat="56.8350863" lon="53.1285280"><time>2024-11-03T08:39:31.550</time></trkpt><trkpt lat="56.8350331" lon="53.1285595"><time>2024-11-03T08:39:34.550</time></trkpt><trkpt lat="56.8349962" lon="53.1286119"><time>2024-11-03T08:39:36.550</time></trkpt><trkpt lat="56.8350414" lon="53.1286117"><time>2024-11-03T08:39:42.550</time></trkpt><trkpt lat="56.8349981" lon="53.1286721"><time>2024-11-03T08:39:58.547</time></trkpt><trkpt lat="56.8349638" lon="53.1287339"><time>2024-11-03T08:40:01.550</time></trkpt><trkpt lat="56.8349282" lon="53.1287907"><time>2024-11-03T08:40:06.547</time></trkpt><trkpt lat="56.8348918" lon="53.1288454"><time>2024-11-03T08:40:08.547</time></trkpt><trkpt lat="56.8348552" lon="53.1289244"><time>2024-11-03T08:40:10.557</time></trkpt><trkpt lat="56.8348212" lon="53.1290080"><time>2024-11-03T08:40:12.560</time></trkpt><trkpt lat="56.8347813" lon="53.1291027"><time>2024-11-03T08:40:14.573</time></trkpt><trkpt lat="56.8347219" lon="53.1291862"><time>2024-11-03T08:40:15.727</time></trkpt><trkpt lat="56.8346814" lon="53.1293115"><time>2024-11-03T08:40:17.553</time></trkpt><trkpt lat="56.8346407" lon="53.1293497"><time>2024-11-03T08:40:18.550</time></trkpt><trkpt lat="56.8345777" lon="53.1294282"><time>2024-11-03T08:40:20.553</time></trkpt><trkpt lat="56.8345350" lon="53.1295166"><time>2024-11-03T08:40:23.550</time></trkpt><trkpt lat="56.8344930" lon="53.1295740"><time>2024-11-03T08:40:26.553</time></trkpt><trkpt lat="56.8344531" lon="53.1296239"><time>2024-11-03T08:40:28.547</time></trkpt><trkpt lat="56.8344303" lon="53.1297286"><time>2024-11-03T08:40:31.543</time></trkpt><trkpt lat="56.8344136" lon="53.1298113"><time>2024-11-03T08:40:34.547</time></trkpt><trkpt lat="56.8344446" lon="53.1298828"><time>2024-11-03T08:40:38.550</time></trkpt><trkpt lat="56.8344736" lon="53.1298193"><time>2024-11-03T08:40:41.557</time></trkpt><trkpt lat="56.8344531" lon="53.1297415"><time>2024-11-03T08:40:52.543</time></trkpt><trkpt lat="56.8344257" lon="53.1298114"><time>2024-11-03T08:40:57.550</time></trkpt><trkpt lat="56.8344166" lon="53.1297227"><time>2024-11-03T08:41:06.543</time></trkpt><trkpt lat="56.8344625" lon="53.1296748"><time>2024-11-03T08:41:11.597</time></trkpt><trkpt lat="56.8345202" lon="53.1296708"><time>2024-11-03T08:41:15.560</time></trkpt><trkpt lat="56.8345536" lon="53.1295914"><time>2024-11-03T08:41:18.547</time></trkpt><trkpt lat="56.8345459" lon="53.1294873"><time>2024-11-03T08:41:21.557</time></trkpt><trkpt lat="56.8345039" lon="53.1294046"><time>2024-11-03T08:41:24.543</time></trkpt><trkpt lat="56.8344748" lon="53.1294540"><time>2024-11-03T08:41:37.303</time></trkpt><trkpt lat="56.8344653" lon="53.1294505"><time>2024-11-03T08:41:41.607</time></trkpt><trkpt lat="56.8344729" lon="53.1294435"><time>2024-11-03T08:41:42.793</time></trkpt><trkpt lat="56.8344269" lon="53.1294303"><time>2024-11-03T08:42:48.577</time></trkpt><trkpt lat="56.8344669" lon="53.1293805"><time>2024-11-03T08:43:16.547</time></trkpt><trkpt lat="56.8345168" lon="53.1293308"><time>2024-11-03T08:43:19.547</time></trkpt><trkpt lat="56.8345654" lon="53.1292739"><time>2024-11-03T08:43:22.583</time></trkpt><trkpt lat="56.8346144" lon="53.1292031"><time>2024-11-03T08:43:25.550</time></trkpt><trkpt lat="56.8347690" lon="53.1290233"><time>2024-11-03T08:43:26.547</time></trkpt><trkpt lat="56.8348137" lon="53.1289929"><time>2024-11-03T08:43:27.540</time></trkpt><trkpt lat="56.8348640" lon="53.1288980"><time>2024-11-03T08:43:29.547</time></trkpt><trkpt lat="56.8349151" lon="53.1288137"><time>2024-11-03T08:43:31.547</time></trkpt><trkpt lat="56.8349585" lon="53.1287459"><time>2024-11-03T08:43:33.550</time></trkpt><trkpt lat="56.8349912" lon="53.1286669"><time>2024-11-03T08:43:35.553</time></trkpt><trkpt lat="56.8350305" lon="53.1285958"><time>2024-11-03T08:43:37.553</time></trkpt><trkpt lat="56.8350840" lon="53.1285861"><time>2024-11-03T08:43:39.553</time></trkpt><trkpt lat="56.8351308" lon="53.1286358"><time>2024-11-03T08:43:41.553</time></trkpt><trkpt lat="56.8351776" lon="53.1286872"><time>2024-11-03T08:43:43.553</time></trkpt><trkpt lat="56.8352163" lon="53.1286217"><time>2024-11-03T08:43:46.547</time></trkpt><trkpt lat="56.8351767" lon="53.1285825"><time>2024-11-03T08:43:54.550</time></trkpt><trkpt lat="56.8351597" lon="53.1286752"><time>2024-11-03T08:44:11.547</time></trkpt><trkpt lat="56.8351221" lon="53.1286294"><time>2024-11-03T08:44:43.547</time></trkpt><trkpt lat="56.8350862" lon="53.1286830"><time>2024-11-03T08:44:49.547</time></trkpt><trkpt lat="56.8350924" lon="53.1287676"><time>2024-11-03T08:44:50.550</time></trkpt><trkpt lat="56.8351015" lon="53.1288543"><time>2024-11-03T08:44:51.550</time></trkpt><trkpt lat="56.8351132" lon="53.1289383"><time>2024-11-03T08:44:52.547</time></trkpt><trkpt lat="56.8352063" lon="53.1290775"><time>2024-11-03T08:44:54.540</time></trkpt><trkpt lat="56.8352875" lon="53.1291082"><time>2024-11-03T08:44:56.547</time></trkpt><trkpt lat="56.8353333" lon="53.1291067"><time>2024-11-03T08:44:57.547</time></trkpt><trkpt lat="56.8353799" lon="53.1291126"><time>2024-11-03T08:44:58.547</time></trkpt><trkpt lat="56.8354737" lon="53.1291197"><time>2024-11-03T08:45:00.557</time></trkpt><trkpt lat="56.8355317" lon="53.1291072"><time>2024-11-03T08:45:01.553</time></trkpt><trkpt lat="56.8355958" lon="53.1290960"><time>2024-11-03T08:45:02.550</time></trkpt><trkpt lat="56.8356562" lon="53.1290718"><time>2024-11-03T08:45:03.547</time></trkpt><trkpt lat="56.8357260" lon="53.1290601"><time>2024-11-03T08:45:04.550</time></trkpt><trkpt lat="56.8357849" lon="53.1290456"><time>2024-11-03T08:45:05.557</time></trkpt><trkpt lat="56.8358562" lon="53.1290323"><time>2024-11-03T08:45:06.547</time></trkpt><trkpt lat="56.8359223" lon="53.1290177"><time>2024-11-03T08:45:07.543</time></trkpt><trkpt lat="56.8359927" lon="53.1290032"><time>2024-11-03T08:45:08.543</time></trkpt><trkpt lat="56.8360495" lon="53.1289971"><time>2024-11-03T08:45:09.543</time></trkpt><trkpt lat="56.8360984" lon="53.1289947"><time>2024-11-03T08:45:10.553</time></trkpt><trkpt lat="56.8361461" lon="53.1290450"><time>2024-11-03T08:45:11.553</time></trkpt><trkpt lat="56.8361982" lon="53.1290758"><time>2024-11-03T08:45:12.550</time></trkpt><trkpt lat="56.8362508" lon="53.1291022"><time>2024-11-03T08:45:13.557</time></trkpt><trkpt lat="56.8363041" lon="53.1291258"><time>2024-11-03T08:45:14.560</time></trkpt><trkpt lat="56.8363571" lon="53.1291415"><time>2024-11-03T08:45:15.553</time></trkpt><trkpt lat="56.8364196" lon="53.1291642"><time>2024-11-03T08:45:16.573</time></trkpt><trkpt lat="56.8364496" lon="53.1291500"><time>2024-11-03T08:45:17.820</time></trkpt><trkpt lat="56.8365428" lon="53.1292415"><time>2024-11-03T08:45:19.553</time></trkpt><trkpt lat="56.8365854" lon="53.1293322"><time>2024-11-03T08:45:20.553</time></trkpt><trkpt lat="56.8366265" lon="53.1294430"><time>2024-11-03T08:45:21.550</time></trkpt><trkpt lat="56.8366480" lon="53.1295311"><time>2024-11-03T08:45:22.553</time></trkpt><trkpt lat="56.8366698" lon="53.1296388"><time>2024-11-03T08:45:23.553</time></trkpt><trkpt lat="56.8366978" lon="53.1297520"><time>2024-11-03T08:45:24.560</time></trkpt><trkpt lat="56.8367353" lon="53.1298728"><time>2024-11-03T08:45:25.547</time></trkpt><trkpt lat="56.8367848" lon="53.1299997"><time>2024-11-03T08:45:26.547</time></trkpt><trkpt lat="56.8368334" lon="53.1301374"><time>2024-11-03T08:45:27.560</time></trkpt><trkpt lat="56.8368581" lon="53.1302160"><time>2024-11-03T08:45:28.643</time></trkpt><trkpt lat="56.8369338" lon="53.1303947"><time>2024-11-03T08:45:29.543</time></trkpt><trkpt lat="56.8369931" lon="53.1305372"><time>2024-11-03T08:45:30.547</time></trkpt><trkpt lat="56.8370404" lon="53.1306672"><time>2024-11-03T08:45:31.543</time></trkpt><trkpt lat="56.8370996" lon="53.1307969"><time>2024-11-03T08:45:32.543</time></trkpt><trkpt lat="56.8371469" lon="53.1309153"><time>2024-11-03T08:45:33.550</time></trkpt><trkpt lat="56.8371950" lon="53.1310430"><time>2024-11-03T08:45:34.553</time></trkpt><trkpt lat="56.8372359" lon="53.1311548"><time>2024-11-03T08:45:35.543</time></trkpt><trkpt lat="56.8372693" lon="53.1312681"><time>2024-11-03T08:45:36.540</time></trkpt><trkpt lat="56.8373023" lon="53.1313920"><time>2024-11-03T08:45:37.543</time></trkpt><trkpt lat="56.8373434" lon="53.1315109"><time>2024-11-03T08:45:38.577</time></trkpt><trkpt lat="56.8373636" lon="53.1315721"><time>2024-11-03T08:45:39.653</time></trkpt><trkpt lat="56.8374148" lon="53.1317020"><time>2024-11-03T08:45:40.547</time></trkpt><trkpt lat="56.8374448" lon="53.1317927"><time>2024-11-03T08:45:41.543</time></trkpt><trkpt lat="56.8374509" lon="53.1318761"><time>2024-11-03T08:45:42.557</time></trkpt><trkpt lat="56.8374722" lon="53.1319661"><time>2024-11-03T08:45:43.557</time></trkpt><trkpt lat="56.8375055" lon="53.1320611"><time>2024-11-03T08:45:44.550</time></trkpt><trkpt lat="56.8375331" lon="53.1321475"><time>2024-11-03T08:45:45.547</time></trkpt><trkpt lat="56.8375540" lon="53.1322284"><time>2024-11-03T08:45:46.567</time></trkpt><trkpt lat="56.8375699" lon="53.1322602"><time>2024-11-03T08:45:47.657</time></trkpt><trkpt lat="56.8376030" lon="53.1323512"><time>2024-11-03T08:45:48.553</time></trkpt><trkpt lat="56.8376344" lon="53.1324672"><time>2024-11-03T08:45:50.540</time></trkpt><trkpt lat="56.8376551" lon="53.1325936"><time>2024-11-03T08:45:52.550</time></trkpt><trkpt lat="56.8376848" lon="53.1326887"><time>2024-11-03T08:45:54.547</time></trkpt><trkpt lat="56.8377416" lon="53.1328224"><time>2024-11-03T08:45:56.543</time></trkpt><trkpt lat="56.8377779" lon="53.1328986"><time>2024-11-03T08:45:57.550</time></trkpt><trkpt lat="56.8378003" lon="53.1330170"><time>2024-11-03T08:45:59.547</time></trkpt><trkpt lat="56.8377792" lon="53.1330948"><time>2024-11-03T08:46:01.547</time></trkpt><trkpt lat="56.8377266" lon="53.1331324"><time>2024-11-03T08:46:03.540</time></trkpt><trkpt lat="56.8376454" lon="53.1331456"><time>2024-11-03T08:46:05.543</time></trkpt><trkpt lat="56.8375988" lon="53.1331549"><time>2024-11-03T08:46:06.557</time></trkpt><trkpt lat="56.8375529" lon="53.1331569"><time>2024-11-03T08:46:07.547</time></trkpt><trkpt lat="56.8375041" lon="53.1331929"><time>2024-11-03T08:46:10.547</time></trkpt><trkpt lat="56.8374534" lon="53.1331949"><time>2024-11-03T08:46:13.550</time></trkpt><trkpt lat="56.8374996" lon="53.1331719"><time>2024-11-03T08:46:30.547</time></trkpt><trkpt lat="56.8375426" lon="53.1331926"><time>2024-11-03T08:46:35.520</time></trkpt><trkpt lat="56.8375509" lon="53.1332061"><time>2024-11-03T08:46:36.053</time></trkpt><trkpt lat="56.8375162" lon="53.1331848"><time>2024-11-03T08:46:37.293</time></trkpt><trkpt lat="56.8374718" lon="53.1331212"><time>2024-11-03T08:47:16.557</time></trkpt><trkpt lat="56.8374264" lon="53.1331097"><time>2024-11-03T08:47:38.550</time></trkpt><trkpt lat="56.8373925" lon="53.1331749"><time>2024-11-03T08:47:58.587</time></trkpt><trkpt lat="56.8373512" lon="53.1332128"><time>2024-11-03T08:48:00.547</time></trkpt><trkpt lat="56.8373075" lon="53.1332459"><time>2024-11-03T08:48:02.603</time></trkpt><trkpt lat="56.8372597" lon="53.1332657"><time>2024-11-03T08:48:06.550</time></trkpt><trkpt lat="56.8371511" lon="53.1332730"><time>2024-11-03T08:48:08.553</time></trkpt><trkpt lat="56.8370800" lon="53.1332722"><time>2024-11-03T08:48:09.553</time></trkpt><trkpt lat="56.8369325" lon="53.1332451"><time>2024-11-03T08:48:10.557</time></trkpt><trkpt lat="56.8368179" lon="53.1333256"><time>2024-11-03T08:48:11.547</time></trkpt><trkpt lat="56.8367541" lon="53.1333379"><time>2024-11-03T08:48:12.540</time></trkpt><trkpt lat="56.8366861" lon="53.1333555"><time>2024-11-03T08:48:13.547</time></trkpt><trkpt lat="56.8366285" lon="53.1333891"><time>2024-11-03T08:48:14.560</time></trkpt><trkpt lat="56.8365646" lon="53.1334116"><time>2024-11-03T08:48:16.553</time></trkpt><trkpt lat="56.8365157" lon="53.1334420"><time>2024-11-03T08:48:20.547</time></trkpt><trkpt lat="56.8364719" lon="53.1335429"><time>2024-11-03T08:48:23.557</time></trkpt><trkpt lat="56.8364654" lon="53.1336379"><time>2024-11-03T08:48:25.547</time></trkpt><trkpt lat="56.8364627" lon="53.1337222"><time>2024-11-03T08:48:27.553</time></trkpt><trkpt lat="56.8364527" lon="53.1338325"><time>2024-11-03T08:48:29.550</time></trkpt><trkpt lat="56.8364464" lon="53.1339519"><time>2024-11-03T08:48:31.550</time></trkpt><trkpt lat="56.8364457" lon="53.1340766"><time>2024-11-03T08:48:33.550</time></trkpt><trkpt lat="56.8364474" lon="53.1342894"><time>2024-11-03T08:48:34.550</time></trkpt><trkpt lat="56.8364382" lon="53.1345036"><time>2024-11-03T08:48:35.550</time></trkpt><trkpt lat="56.8364496" lon="53.1345832"><time>2024-11-03T08:48:36.543</time></trkpt><trkpt lat="56.8364533" lon="53.1347014"><time>2024-11-03T08:48:38.587</time></trkpt><trkpt lat="56.8364584" lon="53.1347354"><time>2024-11-03T08:48:39.800</time></trkpt><trkpt lat="56.8364882" lon="53.1348395"><time>2024-11-03T08:48:41.550</time></trkpt><trkpt lat="56.8364967" lon="53.1349445"><time>2024-11-03T08:48:43.550</time></trkpt><trkpt lat="56.8355500" lon="53.1373782"><time>2024-11-03T08:51:08.567</time></trkpt><trkpt lat="56.8355334" lon="53.1374421"><time>2024-11-03T08:51:09.663</time></trkpt><trkpt lat="56.8355401" lon="53.1374463"><time>2024-11-03T08:51:11.443</time></trkpt><trkpt lat="56.8355608" lon="53.1375260"><time>2024-11-03T08:51:16.583</time></trkpt><trkpt lat="56.8355713" lon="53.1375569"><time>2024-11-03T08:51:17.667</time></trkpt><trkpt lat="56.8355316" lon="53.1375050"><time>2024-11-03T08:51:49.560</time></trkpt><trkpt lat="56.8355522" lon="53.1374255"><time>2024-11-03T08:52:25.547</time></trkpt><trkpt lat="56.8355757" lon="53.1373361"><time>2024-11-03T08:52:37.543</time></trkpt><trkpt lat="56.8355823" lon="53.1372164"><time>2024-11-03T08:52:39.553</time></trkpt><trkpt lat="56.8355708" lon="53.1371344"><time>2024-11-03T08:52:42.543</time></trkpt><trkpt lat="56.8355814" lon="53.1369312"><time>2024-11-03T08:52:43.547</time></trkpt><trkpt lat="56.8355947" lon="53.1368275"><time>2024-11-03T08:52:45.547</time></trkpt><trkpt lat="56.8356441" lon="53.1367441"><time>2024-11-03T08:52:47.543</time></trkpt><trkpt lat="56.8356949" lon="53.1367058"><time>2024-11-03T08:52:49.550</time></trkpt><trkpt lat="56.8357477" lon="53.1366858"><time>2024-11-03T08:52:50.547</time></trkpt><trkpt lat="56.8358221" lon="53.1366529"><time>2024-11-03T08:52:52.543</time></trkpt><trkpt lat="56.8358974" lon="53.1366200"><time>2024-11-03T08:52:54.550</time></trkpt><trkpt lat="56.8359426" lon="53.1366077"><time>2024-11-03T08:52:55.543</time></trkpt><trkpt lat="56.8359890" lon="53.1365977"><time>2024-11-03T08:52:56.543</time></trkpt><trkpt lat="56.8360700" lon="53.1365793"><time>2024-11-03T08:52:58.560</time></trkpt><trkpt lat="56.8361214" lon="53.1365839"><time>2024-11-03T08:53:00.543</time></trkpt><trkpt lat="56.8361359" lon="53.1367076"><time>2024-11-03T08:53:04.547</time></trkpt><trkpt lat="56.8361531" lon="53.1368069"><time>2024-11-03T08:53:06.540</time></trkpt><trkpt lat="56.8361867" lon="53.1368771"><time>2024-11-03T08:53:08.543</time></trkpt><trkpt lat="56.8362564" lon="53.1369521"><time>2024-11-03T08:53:10.547</time></trkpt><trkpt lat="56.8364514" lon="53.1369917"><time>2024-11-03T08:53:12.543</time></trkpt><trkpt lat="56.8363831" lon="53.1370144"><time>2024-11-03T08:53:13.547</time></trkpt><trkpt lat="56.8363352" lon="53.1368757"><time>2024-11-03T08:53:14.543</time></trkpt><trkpt lat="56.8363643" lon="53.1369730"><time>2024-11-03T08:53:15.540</time></trkpt><trkpt lat="56.8363914" lon="53.1368678"><time>2024-11-03T08:53:17.550</time></trkpt><trkpt lat="56.8363087" lon="53.1368086"><time>2024-11-03T08:53:20.540</time></trkpt><trkpt lat="56.8362639" lon="53.1368004"><time>2024-11-03T08:53:21.540</time></trkpt><trkpt lat="56.8362153" lon="53.1367001"><time>2024-11-03T08:53:30.540</time></trkpt><trkpt lat="56.8361705" lon="53.1366624"><time>2024-11-03T08:53:31.547</time></trkpt><trkpt lat="56.8361211" lon="53.1366457"><time>2024-11-03T08:53:32.553</time></trkpt><trkpt lat="56.8360726" lon="53.1366388"><time>2024-11-03T08:53:33.543</time></trkpt><trkpt lat="56.8360214" lon="53.1366441"><time>2024-11-03T08:53:34.543</time></trkpt><trkpt lat="56.8359226" lon="53.1366694"><time>2024-11-03T08:53:35.540</time></trkpt><trkpt lat="56.8358653" lon="53.1366372"><time>2024-11-03T08:53:36.550</time></trkpt><trkpt lat="56.8358098" lon="53.1366320"><time>2024-11-03T08:53:37.547</time></trkpt><trkpt lat="56.8357587" lon="53.1366583"><time>2024-11-03T08:53:38.543</time></trkpt><trkpt lat="56.8356713" lon="53.1367314"><time>2024-11-03T08:53:40.537</time></trkpt><trkpt lat="56.8356090" lon="53.1368181"><time>2024-11-03T08:53:42.550</time></trkpt><trkpt lat="56.8356128" lon="53.1369532"><time>2024-11-03T08:53:45.547</time></trkpt><trkpt lat="56.8356126" lon="53.1370366"><time>2024-11-03T08:53:47.547</time></trkpt><trkpt lat="56.8356196" lon="53.1371748"><time>2024-11-03T08:53:49.550</time></trkpt><trkpt lat="56.8356257" lon="53.1372592"><time>2024-11-03T08:53:50.550</time></trkpt><trkpt lat="56.8356217" lon="53.1373993"><time>2024-11-03T08:53:52.553</time></trkpt><trkpt lat="56.8354864" lon="53.1373985"><time>2024-11-03T08:53:54.557</time></trkpt><trkpt lat="56.8354416" lon="53.1374140"><time>2024-11-03T08:53:55.547</time></trkpt><trkpt lat="56.8353849" lon="53.1374140"><time>2024-11-03T08:53:56.543</time></trkpt><trkpt lat="56.8353386" lon="53.1374317"><time>2024-11-03T08:53:57.543</time></trkpt><trkpt lat="56.8352829" lon="53.1373229"><time>2024-11-03T08:53:59.547</time></trkpt><trkpt lat="56.8352826" lon="53.1371807"><time>2024-11-03T08:54:01.557</time></trkpt><trkpt lat="56.8352941" lon="53.1370594"><time>2024-11-03T08:54:03.553</time></trkpt><trkpt lat="56.8352996" lon="53.1369325"><time>2024-11-03T08:54:06.550</time></trkpt><trkpt lat="56.8353020" lon="53.1368019"><time>2024-11-03T08:54:08.547</time></trkpt><trkpt lat="56.8352975" lon="53.1366361"><time>2024-11-03T08:54:10.553</time></trkpt><trkpt lat="56.8352975" lon="53.1365520"><time>2024-11-03T08:54:11.557</time></trkpt><trkpt lat="56.8352980" lon="53.1363886"><time>2024-11-03T08:54:13.553</time></trkpt><trkpt lat="56.8352950" lon="53.1362817"><time>2024-11-03T08:54:14.553</time></trkpt><trkpt lat="56.8352876" lon="53.1361715"><time>2024-11-03T08:54:15.553</time></trkpt><trkpt lat="56.8352819" lon="53.1360659"><time>2024-11-03T08:54:16.553</time></trkpt><trkpt lat="56.8352837" lon="53.1359675"><time>2024-11-03T08:54:17.557</time></trkpt><trkpt lat="56.8352948" lon="53.1358830"><time>2024-11-03T08:54:18.557</time></trkpt><trkpt lat="56.8353169" lon="53.1358101"><time>2024-11-03T08:54:19.553</time></trkpt><trkpt lat="56.8353878" lon="53.1356986"><time>2024-11-03T08:54:20.553</time></trkpt><trkpt lat="56.8354462" lon="53.1357136"><time>2024-11-03T08:54:21.553</time></trkpt><trkpt lat="56.8355092" lon="53.1357126"><time>2024-11-03T08:54:22.543</time></trkpt><trkpt lat="56.8355831" lon="53.1357027"><time>2024-11-03T08:54:23.547</time></trkpt><trkpt lat="56.8356654" lon="53.1356985"><time>2024-11-03T08:54:24.560</time></trkpt><trkpt lat="56.8357482" lon="53.1356927"><time>2024-11-03T08:54:25.560</time></trkpt><trkpt lat="56.8358315" lon="53.1356866"><time>2024-11-03T08:54:26.560</time></trkpt><trkpt lat="56.8359140" lon="53.1356688"><time>2024-11-03T08:54:27.553</time></trkpt><trkpt lat="56.8359967" lon="53.1356588"><time>2024-11-03T08:54:28.557</time></trkpt><trkpt lat="56.8360769" lon="53.1356434"><time>2024-11-03T08:54:29.547</time></trkpt><trkpt lat="56.8361373" lon="53.1356261"><time>2024-11-03T08:54:30.553</time></trkpt><trkpt lat="56.8362025" lon="53.1356085"><time>2024-11-03T08:54:31.557</time></trkpt><trkpt lat="56.8362645" lon="53.1355964"><time>2024-11-03T08:54:32.557</time></trkpt><trkpt lat="56.8363256" lon="53.1355925"><time>2024-11-03T08:54:33.553</time></trkpt><trkpt lat="56.8363895" lon="53.1355780"><time>2024-11-03T08:54:34.547</time></trkpt><trkpt lat="56.8364667" lon="53.1355626"><time>2024-11-03T08:54:35.557</time></trkpt><trkpt lat="56.8365420" lon="53.1355506"><time>2024-11-03T08:54:36.557</time></trkpt><trkpt lat="56.8366250" lon="53.1355355"><time>2024-11-03T08:54:37.553</time></trkpt><trkpt lat="56.8367099" lon="53.1355166"><time>2024-11-03T08:54:38.543</time></trkpt><trkpt lat="56.8368034" lon="53.1355089"><time>2024-11-03T08:54:39.547</time></trkpt><trkpt lat="56.8368858" lon="53.1354873"><time>2024-11-03T08:54:40.550</time></trkpt><trkpt lat="56.8369767" lon="53.1354735"><time>2024-11-03T08:54:41.547</time></trkpt><trkpt lat="56.8370616" lon="53.1354661"><time>2024-11-03T08:54:42.550</time></trkpt><trkpt lat="56.8371391" lon="53.1354526"><time>2024-11-03T08:54:43.547</time></trkpt><trkpt lat="56.8372245" lon="53.1354539"><time>2024-11-03T08:54:44.550</time></trkpt><trkpt lat="56.8380509" lon="53.1429346"><time>2024-11-03T08:57:05.607</time></trkpt><trkpt lat="56.8380508" lon="53.1429382"><time>2024-11-03T08:57:06.597</time></trkpt><trkpt lat="56.8380581" lon="53.1429041"><time>2024-11-03T08:57:19.440</time></trkpt><trkpt lat="56.8380837" lon="53.1428560"><time>2024-11-03T08:57:51.613</time></trkpt><trkpt lat="56.8380930" lon="53.1428278"><time>2024-11-03T08:57:52.563</time></trkpt><trkpt lat="56.8381309" lon="53.1427550"><time>2024-11-03T08:57:54.573</time></trkpt><trkpt lat="56.8381755" lon="53.1427229"><time>2024-11-03T08:57:57.577</time></trkpt><trkpt lat="56.8382297" lon="53.1427468"><time>2024-11-03T08:58:01.580</time></trkpt><trkpt lat="56.8334770" lon="53.1534636"><time>2024-11-03T09:05:25.103</time></trkpt><trkpt lat="56.8334800" lon="53.1534595"><time>2024-11-03T09:05:25.560</time></trkpt><trkpt lat="56.8335174" lon="53.1533922"><time>2024-11-03T09:05:32.553</time></trkpt><trkpt lat="56.8335225" lon="53.1533995"><time>2024-11-03T09:05:38.873</time></trkpt><trkpt lat="56.8335621" lon="53.1533721"><time>2024-11-03T09:06:06.617</time></trkpt><trkpt lat="56.8335627" lon="53.1533710"><time>2024-11-03T09:06:07.580</time></trkpt><trkpt lat="56.8335801" lon="53.1534697"><time>2024-11-03T09:06:42.580</time></trkpt><trkpt lat="56.8343285" lon="53.1526704"><time>2024-11-03T09:08:05.573</time></trkpt><trkpt lat="56.8343791" lon="53.1526382"><time>2024-11-03T09:08:11.563</time></trkpt><trkpt lat="56.8344167" lon="53.1525849"><time>2024-11-03T09:08:16.613</time></trkpt><trkpt lat="56.8344656" lon="53.1525697"><time>2024-11-03T09:08:21.557</time></trkpt><trkpt lat="56.8345262" lon="53.1525841"><time>2024-11-03T09:08:25.560</time></trkpt><trkpt lat="56.8345802" lon="53.1525872"><time>2024-11-03T09:08:27.567</time></trkpt><trkpt lat="56.8346292" lon="53.1525727"><time>2024-11-03T09:08:29.577</time></trkpt><trkpt lat="56.8346890" lon="53.1525692"><time>2024-11-03T09:08:32.567</time></trkpt><trkpt lat="56.8346463" lon="53.1525394"><time>2024-11-03T09:08:42.573</time></trkpt><trkpt lat="56.8346261" lon="53.1526134"><time>2024-11-03T09:08:50.577</time></trkpt><trkpt lat="56.8317111" lon="53.1491674"><time>2024-11-03T09:13:14.710</time></trkpt><trkpt lat="56.8317093" lon="53.1491545"><time>2024-11-03T09:13:15.557</time></trkpt><trkpt lat="56.8317376" lon="53.1492373"><time>2024-11-03T09:13:22.570</time></trkpt><trkpt lat="56.8317435" lon="53.1493279"><time>2024-11-03T09:13:25.563</time></trkpt><trkpt lat="56.8317542" lon="53.1494223"><time>2024-11-03T09:13:28.557</time></trkpt><trkpt lat="56.8317769" lon="53.1495244"><time>2024-11-03T09:13:31.550</time></trkpt><trkpt lat="56.8317832" lon="53.1496094"><time>2024-11-03T09:13:34.573</time></trkpt><trkpt lat="56.8317832" lon="53.1496321"><time>2024-11-03T09:13:35.567</time></trkpt><trkpt lat="56.8317880" lon="53.1497266"><time>2024-11-03T09:13:39.553</time></trkpt><trkpt lat="56.8318058" lon="53.1498076"><time>2024-11-03T09:13:42.560</time></trkpt><trkpt lat="56.8318115" lon="53.1499011"><time>2024-11-03T09:13:45.557</time></trkpt><trkpt lat="56.8318152" lon="53.1500348"><time>2024-11-03T09:13:48.553</time></trkpt><trkpt lat="56.8318331" lon="53.1501222"><time>2024-11-03T09:13:50.560</time></trkpt><trkpt lat="56.8317986" lon="53.1502101"><time>2024-11-03T09:13:53.560</time></trkpt><trkpt lat="56.8317392" lon="53.1502070"><time>2024-11-03T09:13:56.560</time></trkpt><trkpt lat="56.8316877" lon="53.1501799"><time>2024-11-03T09:13:59.563</time></trkpt><trkpt lat="56.8316406" lon="53.1501681"><time>2024-11-03T09:14:02.563</time></trkpt><trkpt lat="56.8315848" lon="53.1501322"><time>2024-11-03T09:14:06.557</time></trkpt><trkpt lat="56.8315405" lon="53.1500849"><time>2024-11-03T09:14:10.553</time></trkpt><trkpt lat="56.8314931" lon="53.1500884"><time>2024-11-03T09:14:15.553</time></trkpt><trkpt lat="56.8315325" lon="53.1501365"><time>2024-11-03T09:14:29.557</time></trkpt><trkpt lat="56.8315386" lon="53.1501634"><time>2024-11-03T09:14:35.313</time></trkpt><trkpt lat="56.8315548" lon="53.1502151"><time>2024-11-03T09:14:51.593</time></trkpt><trkpt lat="56.8315664" lon="53.1502252"><time>2024-11-03T09:14:52.573</time></trkpt><trkpt lat="56.8315981" lon="53.1501594"><time>2024-11-03T09:14:58.573</time></trkpt><trkpt lat="56.8316364" lon="53.1500983"><time>2024-11-03T09:15:03.567</time></trkpt><trkpt lat="56.8316880" lon="53.1500941"><time>2024-11-03T09:15:07.567</time></trkpt><trkpt lat="56.8317449" lon="53.1500960"><time>2024-11-03T09:15:11.577</time></trkpt><trkpt lat="56.8317928" lon="53.1500403"><time>2024-11-03T09:15:15.570</time></trkpt><trkpt lat="56.8317982" lon="53.1499466"><time>2024-11-03T09:15:20.600</time></trkpt><trkpt lat="56.8317978" lon="53.1498632"><time>2024-11-03T09:15:25.577</time></trkpt><trkpt lat="56.8317883" lon="53.1497732"><time>2024-11-03T09:15:30.577</time></trkpt><trkpt lat="56.8317685" lon="53.1496905"><time>2024-11-03T09:15:34.577</time></trkpt><trkpt lat="56.8317367" lon="53.1496193"><time>2024-11-03T09:15:39.573</time></trkpt><trkpt lat="56.8317074" lon="53.1495534"><time>2024-11-03T09:15:44.570</time></trkpt><trkpt lat="56.8316592" lon="53.1495942"><time>2024-11-03T09:15:48.570</time></trkpt><trkpt lat="56.8316147" lon="53.1496191"><time>2024-11-03T09:15:52.570</time></trkpt><trkpt lat="56.8315741" lon="53.1496603"><time>2024-11-03T09:16:02.557</time></trkpt><trkpt lat="56.8316296" lon="53.1496398"><time>2024-11-03T09:17:07.577</time></trkpt><trkpt lat="56.8316868" lon="53.1496147"><time>2024-11-03T09:17:09.577</time></trkpt><trkpt lat="56.8317445" lon="53.1495907"><time>2024-11-03T09:17:11.573</time></trkpt><trkpt lat="56.8317966" lon="53.1495858"><time>2024-11-03T09:17:13.577</time></trkpt><trkpt lat="56.8318423" lon="53.1495464"><time>2024-11-03T09:17:16.560</time></trkpt><trkpt lat="56.8318878" lon="53.1494545"><time>2024-11-03T09:17:19.567</time></trkpt><trkpt lat="56.8318976" lon="53.1493011"><time>2024-11-03T09:17:21.570</time></trkpt><trkpt lat="56.8318870" lon="53.1491928"><time>2024-11-03T09:17:22.583</time></trkpt><trkpt lat="56.8318752" lon="53.1490609"><time>2024-11-03T09:17:23.580</time></trkpt><trkpt lat="56.8318614" lon="53.1489389"><time>2024-11-03T09:17:24.573</time></trkpt><trkpt lat="56.8318562" lon="53.1488179"><time>2024-11-03T09:17:25.560</time></trkpt><trkpt lat="56.8318440" lon="53.1487148"><time>2024-11-03T09:17:26.570</time></trkpt><trkpt lat="56.8318378" lon="53.1486013"><time>2024-11-03T09:17:27.563</time></trkpt><trkpt lat="56.8318272" lon="53.1484967"><time>2024-11-03T09:17:28.570</time></trkpt><trkpt lat="56.8318150" lon="53.1483984"><time>2024-11-03T09:17:29.557</time></trkpt><trkpt lat="56.8318041" lon="53.1482969"><time>2024-11-03T09:17:30.567</time></trkpt><trkpt lat="56.8317914" lon="53.1481469"><time>2024-11-03T09:17:32.560</time></trkpt><trkpt lat="56.8318126" lon="53.1480209"><time>2024-11-03T09:17:34.557</time></trkpt><trkpt lat="56.8331685" lon="53.1435492"><time>2024-11-03T09:20:04.010</time></trkpt><trkpt lat="56.8331668" lon="53.1435441"><time>2024-11-03T09:20:04.553</time></trkpt><trkpt lat="56.8331392" lon="53.1435485"><time>2024-11-03T09:20:07.700</time></trkpt><trkpt lat="56.8331199" lon="53.1435291"><time>2024-11-03T09:20:10.707</time></trkpt><trkpt lat="56.8331178" lon="53.1435286"><time>2024-11-03T09:20:11.577</time></trkpt><trkpt lat="56.8330727" lon="53.1435830"><time>2024-11-03T09:20:35.580</time></trkpt><trkpt lat="56.8330190" lon="53.1436019"><time>2024-11-03T09:20:39.580</time></trkpt><trkpt lat="56.8329731" lon="53.1436367"><time>2024-11-03T09:20:43.573</time></trkpt><trkpt lat="56.8329418" lon="53.1437139"><time>2024-11-03T09:20:47.577</time></trkpt><trkpt lat="56.8329433" lon="53.1438080"><time>2024-11-03T09:20:50.573</time></trkpt><trkpt lat="56.8329312" lon="53.1438903"><time>2024-11-03T09:20:54.577</time></trkpt><trkpt lat="56.8328850" lon="53.1439317"><time>2024-11-03T09:21:00.577</time></trkpt><trkpt lat="56.8328384" lon="53.1439125"><time>2024-11-03T09:21:04.577</time></trkpt><trkpt lat="56.8327856" lon="53.1439224"><time>2024-11-03T09:21:09.577</time></trkpt><trkpt lat="56.8325020" lon="53.1440881"><time>2024-11-03T09:21:57.610</time></trkpt><trkpt lat="56.8324650" lon="53.1439811"><time>2024-11-03T09:22:28.577</time></trkpt><trkpt lat="56.8324420" lon="53.1438745"><time>2024-11-03T09:22:30.567</time></trkpt><trkpt lat="56.8324275" lon="53.1437334"><time>2024-11-03T09:22:32.587</time></trkpt><trkpt lat="56.8324211" lon="53.1436470"><time>2024-11-03T09:22:33.587</time></trkpt><trkpt lat="56.8323854" lon="53.1435336"><time>2024-11-03T09:22:34.577</time></trkpt><trkpt lat="56.8323515" lon="53.1434400"><time>2024-11-03T09:22:35.577</time></trkpt><trkpt lat="56.8323569" lon="53.1433373"><time>2024-11-03T09:22:36.550</time></trkpt><trkpt lat="56.8323510" lon="53.1432289"><time>2024-11-03T09:22:37.567</time></trkpt><trkpt lat="56.8323432" lon="53.1431276"><time>2024-11-03T09:22:38.557</time></trkpt><trkpt lat="56.8323401" lon="53.1429951"><time>2024-11-03T09:22:39.563</time></trkpt><trkpt lat="56.8323328" lon="53.1428666"><time>2024-11-03T09:22:40.567</time></trkpt><trkpt lat="56.8323268" lon="53.1427409"><time>2024-11-03T09:22:41.560</time></trkpt><trkpt lat="56.8323248" lon="53.1426269"><time>2024-11-03T09:22:42.563</time></trkpt><trkpt lat="56.8323143" lon="53.1425152"><time>2024-11-03T09:22:43.577</time></trkpt><trkpt lat="56.8323202" lon="53.1424014"><time>2024-11-03T09:22:44.573</time></trkpt><trkpt lat="56.8323273" lon="53.1422830"><time>2024-11-03T09:22:45.573</time></trkpt><trkpt lat="56.8323321" lon="53.1421753"><time>2024-11-03T09:22:46.570</time></trkpt><trkpt lat="56.8323268" lon="53.1420871"><time>2024-11-03T09:22:47.577</time></trkpt><trkpt lat="56.8323235" lon="53.1419412"><time>2024-11-03T09:22:49.573</time></trkpt><trkpt lat="56.8323180" lon="53.1418464"><time>2024-11-03T09:22:50.580</time></trkpt><trkpt lat="56.8323243" lon="53.1417420"><time>2024-11-03T09:22:51.573</time></trkpt><trkpt lat="56.8323177" lon="53.1416257"><time>2024-11-03T09:22:52.553</time></trkpt><trkpt lat="56.8323173" lon="53.1415120"><time>2024-11-03T09:22:53.573</time></trkpt><trkpt lat="56.8323106" lon="53.1414039"><time>2024-11-03T09:22:54.573</time></trkpt><trkpt lat="56.8323084" lon="53.1413013"><time>2024-11-03T09:22:55.577</time></trkpt><trkpt lat="56.8323064" lon="53.1411867"><time>2024-11-03T09:22:56.597</time></trkpt><trkpt lat="56.8323004" lon="53.1410830"><time>2024-11-03T09:22:57.573</time></trkpt><trkpt lat="56.8322907" lon="53.1409900"><time>2024-11-03T09:22:58.560</time></trkpt><trkpt lat="56.8322965" lon="53.1408390"><time>2024-11-03T09:23:00.577</time></trkpt><trkpt lat="56.8322829" lon="53.1407323"><time>2024-11-03T09:23:02.577</time></trkpt><trkpt lat="56.8309776" lon="53.1391359"><time>2024-11-03T09:25:31.767</time></trkpt><trkpt lat="56.8309775" lon="53.1391359"><time>2024-11-03T09:25:32.553</time></trkpt><trkpt lat="56.8309773" lon="53.1391362"><time>2024-11-03T09:25:37.620</time></trkpt><trkpt lat="56.8309823" lon="53.1390532"><time>2024-11-03T09:25:55.607</time></trkpt><trkpt lat="56.8309831" lon="53.1390516"><time>2024-11-03T09:25:56.563</time></trkpt><trkpt lat="56.8310228" lon="53.1389828"><time>2024-11-03T09:26:06.577</time></trkpt><trkpt lat="56.8310373" lon="53.1389003"><time>2024-11-03T09:26:10.577</time></trkpt><trkpt lat="56.8310841" lon="53.1388947"><time>2024-11-03T09:26:13.577</time></trkpt><trkpt lat="56.8311348" lon="53.1389144"><time>2024-11-03T09:26:16.570</time></trkpt><trkpt lat="56.8311811" lon="53.1389251"><time>2024-11-03T09:26:19.577</time></trkpt><trkpt lat="56.8312351" lon="53.1389558"><time>2024-11-03T09:26:23.573</time></trkpt><trkpt lat="56.8312586" lon="53.1390362"><time>2024-11-03T09:26:27.580</time></trkpt><trkpt lat="56.8312731" lon="53.1391158"><time>2024-11-03T09:26:35.573</time></trkpt><trkpt lat="56.8312210" lon="53.1391354"><time>2024-11-03T09:26:39.573</time></trkpt><trkpt lat="56.8311984" lon="53.1390487"><time>2024-11-03T09:26:52.570</time></trkpt><trkpt lat="56.8311624" lon="53.1389863"><time>2024-11-03T09:26:56.563</time></trkpt><trkpt lat="56.8312053" lon="53.1390123"><time>2024-11-03T09:27:09.577</time></trkpt><trkpt lat="56.8312557" lon="53.1390812"><time>2024-11-03T09:27:40.567</time></trkpt><trkpt lat="56.8313275" lon="53.1390935"><time>2024-11-03T09:27:42.570</time></trkpt><trkpt lat="56.8314226" lon="53.1390970"><time>2024-11-03T09:27:44.577</time></trkpt><trkpt lat="56.8315178" lon="53.1390839"><time>2024-11-03T09:27:45.567</time></trkpt><trkpt lat="56.8318525" lon="53.1338475"><time>2024-11-03T09:32:23.367</time></trkpt><trkpt lat="56.8318523" lon="53.1337452"><time>2024-11-03T09:32:26.567</time></trkpt><trkpt lat="56.8318524" lon="53.1336452"><time>2024-11-03T09:32:30.577</time></trkpt><trkpt lat="56.8318562" lon="53.1335338"><time>2024-11-03T09:32:34.580</time></trkpt><trkpt lat="56.8318595" lon="53.1334404"><time>2024-11-03T09:32:36.567</time></trkpt><trkpt lat="56.8318564" lon="53.1333541"><time>2024-11-03T09:32:38.570</time></trkpt><trkpt lat="56.8318469" lon="53.1332732"><time>2024-11-03T09:32:40.607</time></trkpt><trkpt lat="56.8318444" lon="53.1332325"><time>2024-11-03T09:32:41.557</time></trkpt><trkpt lat="56.8318421" lon="53.1331124"><time>2024-11-03T09:32:44.577</time></trkpt><trkpt lat="56.8318330" lon="53.1329952"><time>2024-11-03T09:32:47.580</time></trkpt><trkpt lat="56.8318301" lon="53.1328837"><time>2024-11-03T09:32:50.567</time></trkpt><trkpt lat="56.8318359" lon="53.1327985"><time>2024-11-03T09:32:53.567</time></trkpt><trkpt lat="56.8318299" lon="53.1327122"><time>2024-11-03T09:32:57.557</time></trkpt><trkpt lat="56.8318269" lon="53.1326217"><time>2024-11-03T09:33:01.580</time></trkpt><trkpt lat="56.8318210" lon="53.1325208"><time>2024-11-03T09:33:05.670</time></trkpt><trkpt lat="56.8318099" lon="53.1324391"><time>2024-11-03T09:33:08.647</time></trkpt><trkpt lat="56.8317861" lon="53.1323519"><time>2024-11-03T09:33:11.593</time></trkpt><trkpt lat="56.8317902" lon="53.1322434"><time>2024-11-03T09:33:14.573</time></trkpt><trkpt lat="56.8318000" lon="53.1321375"><time>2024-11-03T09:33:17.577</time></trkpt><trkpt lat="56.8317980" lon="53.1320221"><time>2024-11-03T09:33:20.560</time></trkpt><trkpt lat="56.8317963" lon="53.1319223"><time>2024-11-03T09:33:23.573</time></trkpt><trkpt lat="56.8309882" lon="53.1310408"><time>2024-11-03T09:34:56.630</time></trkpt><trkpt lat="56.8309723" lon="53.1310274"><time>2024-11-03T09:34:57.577</time></trkpt><trkpt lat="56.8309280" lon="53.1310065"><time>2024-11-03T09:35:00.557</time></trkpt><trkpt lat="56.8308812" lon="53.1309519"><time>2024-11-03T09:35:04.550</time></trkpt><trkpt lat="56.8308457" lon="53.1308781"><time>2024-11-03T09:35:08.553</time></trkpt><trkpt lat="56.8308275" lon="53.1308318"><time>2024-11-03T09:35:11.863</time></trkpt><trkpt lat="56.8308826" lon="53.1309584"><time>2024-11-03T09:35:44.607</time></trkpt><trkpt lat="56.8308954" lon="53.1309720"><time>2024-11-03T09:35:45.583</time></trkpt><trkpt lat="56.8309551" lon="53.1309839"><time>2024-11-03T09:35:49.580</time></trkpt><trkpt lat="56.8310062" lon="53.1309736"><time>2024-11-03T09:35:52.577</time></trkpt><trkpt lat="56.8310534" lon="53.1309968"><time>2024-11-03T09:35:55.570</time></trkpt><trkpt lat="56.8310953" lon="53.1310496"><time>2024-11-03T09:35:59.570</time></trkpt><trkpt lat="56.8311492" lon="53.1310660"><time>2024-11-03T09:36:03.567</time></trkpt><trkpt lat="56.8312035" lon="53.1310580"><time>2024-11-03T09:36:07.577</time></trkpt><trkpt lat="56.8312508" lon="53.1310548"><time>2024-11-03T09:36:10.577</time></trkpt><trkpt lat="56.8313004" lon="53.1310505"><time>2024-11-03T09:36:13.577</time></trkpt><trkpt lat="56.8317759" lon="53.1361036"><time>2024-11-03T09:40:27.557</time></trkpt><trkpt lat="56.8318196" lon="53.1360701"><time>2024-11-03T09:41:06.573</time></trkpt><trkpt lat="56.8253255" lon="53.1318819"><time>2024-11-03T09:46:05.313</time></trkpt><trkpt lat="56.8253128" lon="53.1319129"><time>2024-11-03T09:46:05.550</time></trkpt><trkpt lat="56.8252734" lon="53.1319747"><time>2024-11-03T09:46:08.557</time></trkpt><trkpt lat="56.8252370" lon="53.1320051"><time>2024-11-03T09:46:11.873</time></trkpt><trkpt lat="56.8252292" lon="53.1320146"><time>2024-11-03T09:46:12.590</time></trkpt><trkpt lat="56.8252205" lon="53.1320264"><time>2024-11-03T09:46:13.573</time></trkpt><trkpt lat="56.8252663" lon="53.1320310"><time>2024-11-03T09:46:35.550</time></trkpt><trkpt lat="56.8253159" lon="53.1320157"><time>2024-11-03T09:46:40.567</time></trkpt><trkpt lat="56.8253700" lon="53.1320230"><time>2024-11-03T09:46:45.567</time></trkpt><trkpt lat="56.8254141" lon="53.1319969"><time>2024-11-03T09:46:48.580</time></trkpt><trkpt lat="56.8254600" lon="53.1320142"><time>2024-11-03T09:46:52.590</time></trkpt><trkpt lat="56.8255114" lon="53.1320650"><time>2024-11-03T09:46:56.557</time></trkpt><trkpt lat="56.8255632" lon="53.1321364"><time>2024-11-03T09:46:59.577</time></trkpt><trkpt lat="56.8256058" lon="53.1322013"><time>2024-11-03T09:47:02.567</time></trkpt><trkpt lat="56.8256507" lon="53.1322314"><time>2024-11-03T09:47:05.573</time></trkpt><trkpt lat="56.8257088" lon="53.1322161"><time>2024-11-03T09:47:08.563</time></trkpt><trkpt lat="56.8257686" lon="53.1322008"><time>2024-11-03T09:47:11.573</time></trkpt><trkpt lat="56.8258121" lon="53.1321607"><time>2024-11-03T09:47:14.573</time></trkpt><trkpt lat="56.8258518" lon="53.1320981"><time>2024-11-03T09:47:19.553</time></trkpt><trkpt lat="56.8258039" lon="53.1320991"><time>2024-11-03T09:47:44.573</time></trkpt><trkpt lat="56.8279021" lon="53.1366681"><time>2024-11-03T09:51:36.960</time></trkpt><trkpt lat="56.8278908" lon="53.1366342"><time>2024-11-03T09:51:37.593</time></trkpt><trkpt lat="56.8278655" lon="53.1365377"><time>2024-11-03T09:51:40.547</time></trkpt><trkpt lat="56.8278421" lon="53.1364486"><time>2024-11-03T09:51:43.557</time></trkpt><trkpt lat="56.8278301" lon="53.1363636"><time>2024-11-03T09:51:46.557</time></trkpt><trkpt lat="56.8278283" lon="53.1363394"><time>2024-11-03T09:51:47.700</time></trkpt><trkpt lat="56.8278622" lon="53.1364265"><time>2024-11-03T09:52:37.597</time></trkpt><trkpt lat="56.8278702" lon="53.1364485"><time>2024-11-03T09:52:38.557</time></trkpt><trkpt lat="56.8278847" lon="53.1365275"><time>2024-11-03T09:52:41.570</time></trkpt><trkpt lat="56.8278899" lon="53.1366182"><time>2024-11-03T09:52:44.570</time></trkpt><trkpt lat="56.8279035" lon="53.1367045"><time>2024-11-03T09:52:47.573</time></trkpt><trkpt lat="56.8276130" lon="53.1370189"><time>2024-11-03T09:53:40.580</time></trkpt><trkpt lat="56.8276193" lon="53.1371123"><time>2024-11-03T09:53:47.623</time></trkpt><trkpt lat="56.8276434" lon="53.1371836"><time>2024-11-03T09:53:51.780</time></trkpt><trkpt lat="56.8275985" lon="53.1371192"><time>2024-11-03T09:53:55.570</time></trkpt><trkpt lat="56.8275363" lon="53.1371252"><time>2024-11-03T09:53:57.573</time></trkpt><trkpt lat="56.8271685" lon="53.1372317"><time>2024-11-03T09:53:59.547</time></trkpt><trkpt lat="56.8270746" lon="53.1372398"><time>2024-11-03T09:54:00.550</time></trkpt><trkpt lat="56.8269910" lon="53.1372434"><time>2024-11-03T09:54:01.557</time></trkpt><trkpt lat="56.8269063" lon="53.1372638"><time>2024-11-03T09:54:02.570</time></trkpt><trkpt lat="56.8268182" lon="53.1372816"><time>2024-11-03T09:54:03.560</time></trkpt><trkpt lat="56.8267355" lon="53.1372961"><time>2024-11-03T09:54:04.577</time></trkpt><trkpt lat="56.8266561" lon="53.1373075"><time>2024-11-03T09:54:05.550</time></trkpt><trkpt lat="56.8265830" lon="53.1373254"><time>2024-11-03T09:54:06.553</time></trkpt><trkpt lat="56.8265170" lon="53.1373401"><time>2024-11-03T09:54:07.613</time></trkpt><trkpt lat="56.8264568" lon="53.1373486"><time>2024-11-03T09:54:08.560</time></trkpt><trkpt lat="56.8264059" lon="53.1373569"><time>2024-11-03T09:54:09.563</time></trkpt><trkpt lat="56.8263382" lon="53.1373883"><time>2024-11-03T09:54:11.570</time></trkpt><trkpt lat="56.8263015" lon="53.1374768"><time>2024-11-03T09:54:13.567</time></trkpt><trkpt lat="56.8262961" lon="53.1375595"><time>2024-11-03T09:54:14.570</time></trkpt><trkpt lat="56.8263056" lon="53.1376510"><time>2024-11-03T09:54:15.553</time></trkpt><trkpt lat="56.8263140" lon="53.1377631"><time>2024-11-03T09:54:16.567</time></trkpt><trkpt lat="56.8263263" lon="53.1378887"><time>2024-11-03T09:54:17.557</time></trkpt><trkpt lat="56.8263343" lon="53.1380112"><time>2024-11-03T09:54:18.557</time></trkpt><trkpt lat="56.8263393" lon="53.1381510"><time>2024-11-03T09:54:19.557</time></trkpt><trkpt lat="56.8263443" lon="53.1383058"><time>2024-11-03T09:54:20.560</time></trkpt><trkpt lat="56.8263513" lon="53.1384356"><time>2024-11-03T09:54:21.557</time></trkpt><trkpt lat="56.8263630" lon="53.1385853"><time>2024-11-03T09:54:22.570</time></trkpt><trkpt lat="56.8263788" lon="53.1387341"><time>2024-11-03T09:54:23.557</time></trkpt><trkpt lat="56.8263940" lon="53.1388799"><time>2024-11-03T09:54:24.567</time></trkpt><trkpt lat="56.8263974" lon="53.1390470"><time>2024-11-03T09:54:25.557</time></trkpt><trkpt lat="56.8264065" lon="53.1391985"><time>2024-11-03T09:54:26.570</time></trkpt><trkpt lat="56.8264154" lon="53.1393403"><time>2024-11-03T09:54:27.567</time></trkpt><trkpt lat="56.8264210" lon="53.1394903"><time>2024-11-03T09:54:28.567</time></trkpt><trkpt lat="56.8264289" lon="53.1396403"><time>2024-11-03T09:54:29.560</time></trkpt><trkpt lat="56.8264388" lon="53.1398095"><time>2024-11-03T09:54:30.580</time></trkpt><trkpt lat="56.8264493" lon="53.1399641"><time>2024-11-03T09:54:31.567</time></trkpt><trkpt lat="56.8264549" lon="53.1401258"><time>2024-11-03T09:54:32.587</time></trkpt><trkpt lat="56.8264623" lon="53.1402848"><time>2024-11-03T09:54:33.557</time></trkpt><trkpt lat="56.8264666" lon="53.1404507"><time>2024-11-03T09:54:34.553</time></trkpt><trkpt lat="56.8264826" lon="53.1406051"><time>2024-11-03T09:54:35.550</time></trkpt><trkpt lat="56.8264993" lon="53.1407767"><time>2024-11-03T09:54:36.553</time></trkpt><trkpt lat="56.8265111" lon="53.1409425"><time>2024-11-03T09:54:37.597</time></trkpt><trkpt lat="56.8265297" lon="53.1411079"><time>2024-11-03T09:54:38.567</time></trkpt><trkpt lat="56.8265804" lon="53.1412293"><time>2024-11-03T09:54:39.600</time></trkpt><trkpt lat="56.8265753" lon="53.1414021"><time>2024-11-03T09:54:40.580</time></trkpt><trkpt lat="56.8265826" lon="53.1415619"><time>2024-11-03T09:54:41.580</time></trkpt><trkpt lat="56.8265760" lon="53.1417362"><time>2024-11-03T09:54:42.577</time></trkpt><trkpt lat="56.8265810" lon="53.1419051"><time>2024-11-03T09:54:43.587</time></trkpt><trkpt lat="56.8265865" lon="53.1420677"><time>2024-11-03T09:54:44.570</time></trkpt><trkpt lat="56.8265829" lon="53.1422371"><time>2024-11-03T09:54:45.577</time></trkpt><trkpt lat="56.8265929" lon="53.1424009"><time>2024-11-03T09:54:46.573</time></trkpt><trkpt lat="56.8266058" lon="53.1425339"><time>2024-11-03T09:54:47.577</time></trkpt><trkpt lat="56.8266049" lon="53.1426501"><time>2024-11-03T09:54:48.577</time></trkpt><trkpt lat="56.8266147" lon="53.1427323"><time>2024-11-03T09:54:49.567</time></trkpt><trkpt lat="56.8266658" lon="53.1428602"><time>2024-11-03T09:54:51.577</time></trkpt><trkpt lat="56.8267099" lon="53.1428798"><time>2024-11-03T09:54:52.567</time></trkpt><trkpt lat="56.8267889" lon="53.1428716"><time>2024-11-03T09:54:54.577</time></trkpt><trkpt lat="56.8274546" lon="53.1418365"><time>2024-11-03T09:57:14.787</time></trkpt><trkpt lat="56.8274667" lon="53.1418352"><time>2024-11-03T09:57:15.560</time></trkpt><trkpt lat="56.8275134" lon="53.1417803"><time>2024-11-03T09:57:19.557</time></trkpt><trkpt lat="56.8275291" lon="53.1417378"><time>2024-11-03T09:57:22.397</time></trkpt><trkpt lat="56.8275180" lon="53.1416976"><time>2024-11-03T09:57:47.600</time></trkpt><trkpt lat="56.8275179" lon="53.1416941"><time>2024-11-03T09:57:48.577</time></trkpt><trkpt lat="56.8274962" lon="53.1417861"><time>2024-11-03T09:58:03.560</time></trkpt><trkpt lat="56.8274850" lon="53.1418694"><time>2024-11-03T09:58:06.570</time></trkpt><trkpt lat="56.8274295" lon="53.1419034"><time>2024-11-03T09:58:09.557</time></trkpt><trkpt lat="56.8273776" lon="53.1419142"><time>2024-11-03T09:58:12.557</time></trkpt><trkpt lat="56.8273295" lon="53.1419113"><time>2024-11-03T09:58:15.563</time></trkpt><trkpt lat="56.8272695" lon="53.1419053"><time>2024-11-03T09:58:19.567</time></trkpt><trkpt lat="56.8272211" lon="53.1418989"><time>2024-11-03T09:58:22.560</time></trkpt><trkpt lat="56.8271734" lon="53.1419074"><time>2024-11-03T09:58:25.567</time></trkpt><trkpt lat="56.8271361" lon="53.1419929"><time>2024-11-03T09:58:29.570</time></trkpt><trkpt lat="56.8271304" lon="53.1420785"><time>2024-11-03T09:58:31.570</time></trkpt><trkpt lat="56.8271419" lon="53.1421817"><time>2024-11-03T09:58:34.577</time></trkpt><trkpt lat="56.8271438" lon="53.1422637"><time>2024-11-03T09:58:37.567</time></trkpt><trkpt lat="56.8271504" lon="53.1423735"><time>2024-11-03T09:58:40.567</time></trkpt><trkpt lat="56.8271595" lon="53.1424687"><time>2024-11-03T09:58:43.567</time></trkpt><trkpt lat="56.8271894" lon="53.1425591"><time>2024-11-03T09:58:47.577</time></trkpt><trkpt lat="56.8272005" lon="53.1426643"><time>2024-11-03T09:58:51.583</time></trkpt><trkpt lat="56.8272469" lon="53.1427255"><time>2024-11-03T09:58:55.573</time></trkpt><trkpt lat="56.8272958" lon="53.1427043"><time>2024-11-03T09:58:57.553</time></trkpt><trkpt lat="56.8273560" lon="53.1426883"><time>2024-11-03T09:59:00.563</time></trkpt><trkpt lat="56.8274102" lon="53.1427040"><time>2024-11-03T09:59:03.573</time></trkpt><trkpt lat="56.8274567" lon="53.1427121"><time>2024-11-03T09:59:08.573</time></trkpt><trkpt lat="56.8274118" lon="53.1427334"><time>2024-11-03T09:59:19.557</time></trkpt><trkpt lat="56.8274331" lon="53.1428103"><time>2024-11-03T09:59:40.597</time></trkpt><trkpt lat="56.8274786" lon="53.1427966"><time>2024-11-03T09:59:48.587</time></trkpt><trkpt lat="56.8274159" lon="53.1428259"><time>2024-11-03T09:59:52.577</time></trkpt><trkpt lat="56.8273682" lon="53.1428300"><time>2024-11-03T09:59:55.573</time></trkpt><trkpt lat="56.8273166" lon="53.1427949"><time>2024-11-03T09:59:58.567</time></trkpt><trkpt lat="56.8272654" lon="53.1427928"><time>2024-11-03T10:00:00.567</time></trkpt><trkpt lat="56.8267963" lon="53.1428849"><time>2024-11-03T10:00:02.577</time></trkpt><trkpt lat="56.8267408" lon="53.1429080"><time>2024-11-03T10:00:03.563</time></trkpt><trkpt lat="56.8266849" lon="53.1429212"><time>2024-11-03T10:00:05.577</time></trkpt><trkpt lat="56.8266343" lon="53.1429651"><time>2024-11-03T10:00:07.570</time></trkpt><trkpt lat="56.8266078" lon="53.1430342"><time>2024-11-03T10:00:08.577</time></trkpt><trkpt lat="56.8266002" lon="53.1431197"><time>2024-11-03T10:00:09.577</time></trkpt><trkpt lat="56.8266089" lon="53.1432309"><time>2024-11-03T10:00:10.573</time></trkpt><trkpt lat="56.8266146" lon="53.1433505"><time>2024-11-03T10:00:11.577</time></trkpt><trkpt lat="56.8266211" lon="53.1434672"><time>2024-11-03T10:00:12.573</time></trkpt><trkpt lat="56.8266270" lon="53.1436138"><time>2024-11-03T10:00:13.573</time></trkpt><trkpt lat="56.8266414" lon="53.1437734"><time>2024-11-03T10:00:14.570</time></trkpt><trkpt lat="56.8266530" lon="53.1439357"><time>2024-11-03T10:00:15.543</time></trkpt><trkpt lat="56.8266603" lon="53.1441023"><time>2024-11-03T10:00:16.557</time></trkpt><trkpt lat="56.8282660" lon="53.1482526"><time>2024-11-03T10:02:15.590</time></trkpt><trkpt lat="56.8282719" lon="53.1482564"><time>2024-11-03T10:02:16.550</time></trkpt><trkpt lat="56.8282742" lon="53.1482546"><time>2024-11-03T10:02:19.333</time></trkpt><trkpt lat="56.8283178" lon="53.1483115"><time>2024-11-03T10:03:00.597</time></trkpt><trkpt lat="56.8283202" lon="53.1483410"><time>2024-11-03T10:03:01.577</time></trkpt><trkpt lat="56.8283677" lon="53.1483986"><time>2024-11-03T10:03:05.570</time></trkpt><trkpt lat="56.8284124" lon="53.1484382"><time>2024-11-03T10:03:07.567</time></trkpt><trkpt lat="56.8284594" lon="53.1484750"><time>2024-11-03T10:03:10.563</time></trkpt><trkpt lat="56.8285122" lon="53.1485091"><time>2024-11-03T10:03:14.563</time></trkpt><trkpt lat="56.8285644" lon="53.1485453"><time>2024-11-03T10:03:18.570</time></trkpt><trkpt lat="56.8286103" lon="53.1485488"><time>2024-11-03T10:03:22.573</time></trkpt><trkpt lat="56.8285717" lon="53.1484881"><time>2024-11-03T10:03:38.557</time></trkpt><trkpt lat="56.8285235" lon="53.1484547"><time>2024-11-03T10:03:43.577</time></trkpt><trkpt lat="56.8285083" lon="53.1485335"><time>2024-11-03T10:04:01.563</time></trkpt><trkpt lat="56.8285566" lon="53.1485975"><time>2024-11-03T10:04:44.570</time></trkpt><trkpt lat="56.8286449" lon="53.1486311"><time>2024-11-03T10:04:46.577</time></trkpt><trkpt lat="56.8287096" lon="53.1486314"><time>2024-11-03T10:04:47.577</time></trkpt><trkpt lat="56.8287816" lon="53.1486227"><time>2024-11-03T10:04:48.577</time></trkpt><trkpt lat="56.8234060" lon="53.1395014"><time>2024-11-03T10:21:02.657</time></trkpt><trkpt lat="56.8234123" lon="53.1394869"><time>2024-11-03T10:21:03.843</time></trkpt><trkpt lat="56.8234185" lon="53.1394563"><time>2024-11-03T10:21:06.347</time></trkpt><trkpt lat="56.8233619" lon="53.1394970"><time>2024-11-03T10:22:53.633</time></trkpt><trkpt lat="56.8233510" lon="53.1394937"><time>2024-11-03T10:22:54.610</time></trkpt><trkpt lat="56.8233039" lon="53.1394976"><time>2024-11-03T10:22:58.567</time></trkpt><trkpt lat="56.8232542" lon="53.1395194"><time>2024-11-03T10:23:02.573</time></trkpt><trkpt lat="56.8232090" lon="53.1395025"><time>2024-11-03T10:23:07.563</time></trkpt><trkpt lat="56.8204930" lon="53.1394460"><time>2024-11-03T10:29:02.867</time></trkpt><trkpt lat="56.8204912" lon="53.1394527"><time>2024-11-03T10:29:03.597</time></trkpt><trkpt lat="56.8204909" lon="53.1394467"><time>2024-11-03T10:29:08.557</time></trkpt><trkpt lat="56.8204752" lon="53.1395300"><time>2024-11-03T10:30:04.607</time></trkpt><trkpt lat="56.8204695" lon="53.1395252"><time>2024-11-03T10:30:05.583</time></trkpt><trkpt lat="56.8204474" lon="53.1394364"><time>2024-11-03T10:30:11.580</time></trkpt><trkpt lat="56.8204569" lon="53.1392866"><time>2024-11-03T10:30:17.707</time></trkpt><trkpt lat="56.8204653" lon="53.1392047"><time>2024-11-03T10:30:22.570</time></trkpt><trkpt lat="56.8204846" lon="53.1391277"><time>2024-11-03T10:30:26.587</time></trkpt><trkpt lat="56.8204970" lon="53.1390290"><time>2024-11-03T10:30:30.573</time></trkpt><trkpt lat="56.8205272" lon="53.1389371"><time>2024-11-03T10:30:34.570</time></trkpt><trkpt lat="56.8205492" lon="53.1388375"><time>2024-11-03T10:30:38.577</time></trkpt><trkpt lat="56.8205471" lon="53.1387324"><time>2024-11-03T10:30:42.573</time></trkpt><trkpt lat="56.8205573" lon="53.1386343"><time>2024-11-03T10:30:46.610</time></trkpt><trkpt lat="56.8205851" lon="53.1385656"><time>2024-11-03T10:30:49.580</time></trkpt><trkpt lat="56.8205935" lon="53.1384729"><time>2024-11-03T10:30:53.573</time></trkpt><trkpt lat="56.8206000" lon="53.1383803"><time>2024-11-03T10:30:57.570</time></trkpt><trkpt lat="56.8206038" lon="53.1382797"><time>2024-11-03T10:31:01.573</time></trkpt><trkpt lat="56.8206083" lon="53.1381762"><time>2024-11-03T10:31:05.577</time></trkpt><trkpt lat="56.8206155" lon="53.1380705"><time>2024-11-03T10:31:08.573</time></trkpt><trkpt lat="56.8206074" lon="53.1379840"><time>2024-11-03T10:31:11.577</time></trkpt><trkpt lat="56.8206088" lon="53.1378896"><time>2024-11-03T10:31:15.573</time></trkpt><trkpt lat="56.8206091" lon="53.1377957"><time>2024-11-03T10:31:18.573</time></trkpt><trkpt lat="56.8223123" lon="53.1345299"><time>2024-11-03T10:37:50.830</time></trkpt><trkpt lat="56.8222951" lon="53.1345467"><time>2024-11-03T10:37:51.610</time></trkpt><trkpt lat="56.8222830" lon="53.1345570"><time>2024-11-03T10:37:57.877</time></trkpt><trkpt lat="56.8223468" lon="53.1345763"><time>2024-11-03T10:38:56.623</time></trkpt><trkpt lat="56.8223640" lon="53.1345634"><time>2024-11-03T10:38:57.587</time></trkpt><trkpt lat="56.8224096" lon="53.1345299"><time>2024-11-03T10:39:00.577</time></trkpt><trkpt lat="56.8264491" lon="53.1373063"><time>2024-11-03T10:45:48.687</time></trkpt><trkpt lat="56.8264802" lon="53.1373857"><time>2024-11-03T10:45:59.563</time></trkpt><trkpt lat="56.8265352" lon="53.1374270"><time>2024-11-03T10:46:01.577</time></trkpt><trkpt lat="56.8265998" lon="53.1374564"><time>2024-11-03T10:46:03.573</time></trkpt><trkpt lat="56.8266417" lon="53.1375128"><time>2024-11-03T10:46:05.660</time></trkpt><trkpt lat="56.8266075" lon="53.1374246"><time>2024-11-03T10:46:10.587</time></trkpt><trkpt lat="56.8266121" lon="53.1375386"><time>2024-11-03T10:46:20.577</time></trkpt><trkpt lat="56.8266543" lon="53.1380426"><time>2024-11-03T10:46:22.563</time></trkpt><trkpt lat="56.8266773" lon="53.1381406"><time>2024-11-03T10:46:24.563</time></trkpt><trkpt lat="56.8267227" lon="53.1381355"><time>2024-11-03T10:46:26.567</time></trkpt><trkpt lat="56.8267711" lon="53.1381606"><time>2024-11-03T10:46:33.560</time></trkpt><trkpt lat="56.8268141" lon="53.1381857"><time>2024-11-03T10:47:00.600</time></trkpt><trkpt lat="56.8268474" lon="53.1382413"><time>2024-11-03T10:47:06.607</time></trkpt><trkpt lat="56.8268929" lon="53.1382414"><time>2024-11-03T10:47:51.587</time></trkpt><trkpt lat="56.8268913" lon="53.1383264"><time>2024-11-03T10:48:04.547</time></trkpt><trkpt lat="56.8276513" lon="53.1383623"><time>2024-11-03T10:48:43.710</time></trkpt><trkpt lat="56.8276776" lon="53.1382957"><time>2024-11-03T10:48:49.553</time></trkpt></trkseg></trk></gpx>